createdAt,value
2019-05-21T14:28:28.739Z,50.13
2019-05-21T14:31:00.719Z,43.10
2019-05-21T14:33:31.295Z,42.47
2019-05-21T14:36:01.988Z,44.07
2019-05-21T14:38:33.772Z,47.47
2019-05-21T14:41:04.199Z,51.60
2019-05-21T14:43:36.428Z,46.53
2019-05-21T14:46:21.568Z,55.00
2019-05-21T14:48:51.618Z,50.33
2019-05-21T14:51:21.860Z,43.40
2019-05-21T14:53:53.822Z,44.73
2019-05-21T14:56:24.547Z,47.00
2019-05-21T14:58:56.093Z,45.67
2019-05-21T15:01:26.129Z,56.47
2019-05-21T15:03:56.661Z,44.83
2019-05-21T15:06:27.321Z,48.20
2019-05-21T15:08:57.868Z,45.20
2019-05-21T15:11:31.159Z,46.67
2019-05-21T15:14:02.133Z,39.77
2019-05-21T15:17:32.291Z,40.20
2019-05-21T15:20:06.212Z,42.40
2019-05-21T15:22:38.402Z,42.67
2019-05-21T15:25:09.462Z,44.83
2019-05-21T15:27:42.698Z,39.33
2019-05-21T15:30:15.694Z,46.60
2019-05-21T15:32:46.238Z,38.30
2019-05-21T15:35:17.663Z,38.37
2019-05-21T15:37:48.197Z,38.47
2019-05-21T15:40:20.952Z,32.63
2019-05-21T15:42:53.763Z,29.27
2019-05-21T15:45:24.563Z,33.70
2019-05-21T15:47:56.995Z,33.70
2019-05-21T15:50:48.272Z,34.73
2019-05-21T15:53:19.505Z,30.57
2019-05-21T15:55:53.315Z,29.37
2019-05-21T15:58:27.124Z,28.10
2019-05-21T16:00:59.549Z,28.83
2019-05-21T16:03:30.220Z,27.63
2019-05-21T16:06:00.686Z,28.77
2019-05-21T16:08:31.480Z,28.40
2019-05-21T16:11:01.783Z,29.27
2019-05-21T16:13:34.272Z,29.13
2019-05-21T16:16:05.443Z,26.27
2019-05-21T16:18:35.846Z,31.47
2019-05-21T16:21:06.424Z,24.50
2019-05-21T16:23:40.080Z,24.87
2019-05-21T16:26:11.106Z,26.80
2019-05-21T16:28:43.362Z,26.73
2019-05-21T16:31:18.944Z,23.90
2019-05-21T16:34:45.584Z,26.20
2019-05-21T16:37:17.011Z,23.80
2019-05-21T16:39:47.439Z,26.83
2019-05-21T16:42:17.857Z,29.30
2019-05-21T16:44:48.437Z,27.93
2019-05-21T16:47:18.605Z,28.57
2019-05-21T16:49:49.145Z,28.20
2019-05-21T16:52:19.913Z,28.93
2019-05-21T16:54:50.687Z,27.87
2019-05-21T16:57:22.179Z,29.80
2019-05-21T16:59:53.052Z,24.43
2019-05-21T17:02:23.435Z,29.80
2019-05-21T17:04:54.027Z,27.97
2019-05-21T17:07:25.656Z,28.47
2019-05-21T17:09:57.104Z,30.07
2019-05-21T17:12:30.170Z,24.23
2019-05-21T17:15:03.277Z,24.63
2019-05-21T17:17:53.016Z,21.77
2019-05-21T17:20:23.290Z,21.70
2019-05-21T17:22:55.984Z,24.83
2019-05-21T17:25:30.269Z,23.53
2019-05-21T17:28:00.914Z,25.60
2019-05-21T17:30:31.420Z,24.73
2019-05-21T17:33:03.960Z,20.53
2019-05-21T17:35:34.666Z,20.67
2019-05-21T17:41:52.536Z,21.03
2019-05-21T17:44:24.943Z,19.50
2019-05-21T17:46:55.659Z,21.77
2019-05-21T17:49:29.083Z,20.63
2019-05-21T17:51:59.542Z,21.10
2019-05-21T17:54:30.022Z,19.63
2019-05-21T17:57:00.726Z,21.63
2019-05-21T17:59:31.515Z,19.13
2019-05-21T18:02:03.248Z,17.23
2019-05-21T18:04:33.858Z,23.43
2019-05-21T18:07:05.284Z,19.00
2019-05-21T18:09:35.855Z,18.23
2019-05-21T18:12:07.536Z,19.70
2019-05-21T18:14:39.083Z,16.70
2019-05-21T18:17:13.517Z,17.30
2019-05-21T18:19:44.392Z,18.93
2019-05-21T18:22:16.109Z,18.67
2019-05-21T18:24:48.746Z,19.13
2019-05-21T18:27:18.973Z,15.30
2019-05-21T18:29:49.314Z,14.83
2019-05-21T18:32:20.073Z,18.87
2019-05-21T18:34:50.972Z,14.77
2019-05-21T18:37:21.188Z,14.20
2019-05-21T18:39:51.534Z,15.80
2019-05-21T18:42:22.777Z,15.57
2019-05-21T18:44:53.222Z,18.90
2019-05-21T18:47:23.762Z,18.17
2019-05-21T18:49:54.172Z,15.63
2019-05-21T18:52:24.406Z,16.77
2019-05-21T18:54:54.885Z,21.37
2019-05-21T18:57:24.972Z,16.43
2019-05-21T18:59:55.071Z,18.10
2019-05-21T19:02:25.032Z,20.03
2019-05-21T19:04:55.285Z,19.10
2019-05-21T19:07:25.522Z,22.33
2019-05-21T19:09:56.233Z,17.37
2019-05-21T19:12:37.558Z,16.97
2019-05-21T19:14:58.591Z,20.17
2019-05-21T19:17:35.696Z,18.93
2019-05-21T19:20:00.923Z,18.87
2019-05-21T19:22:31.021Z,31.00
2019-05-21T19:25:01.441Z,19.47
2019-05-21T19:27:34.976Z,29.17
2019-05-21T19:30:06.166Z,21.97
2019-05-21T19:32:37.125Z,26.80
2019-05-21T19:35:07.793Z,31.37
2019-05-21T19:37:38.194Z,29.70
2019-05-21T19:40:09.418Z,30.53
2019-05-21T19:42:53.925Z,35.43
2019-05-21T19:45:11.821Z,34.87
2019-05-21T19:47:42.516Z,36.07
2019-05-21T19:50:13.397Z,36.63
2019-05-21T19:52:46.657Z,36.57
2019-05-21T19:55:16.766Z,46.37
2019-05-21T19:57:46.896Z,38.27
2019-05-21T20:00:21.028Z,44.70
2019-05-21T20:02:51.479Z,47.43
2019-05-21T20:05:22.040Z,44.30
2019-05-21T20:07:52.418Z,40.97
2019-05-21T20:10:22.845Z,47.60
2019-05-21T20:12:52.730Z,44.73
2019-05-21T20:15:24.627Z,44.03
2019-05-21T20:18:06.652Z,47.80
2019-05-21T20:20:27.907Z,47.70
2019-05-21T20:22:58.041Z,50.37
2019-05-21T20:25:29.237Z,51.10
2019-05-21T20:27:59.288Z,45.93
2019-05-21T20:30:31.045Z,52.47
2019-05-21T20:33:01.167Z,49.20
2019-05-21T20:35:32.065Z,48.47
2019-05-21T20:38:03.654Z,47.37
2019-05-21T20:40:33.703Z,56.80
2019-05-21T20:43:04.743Z,46.20
2019-05-21T20:45:36.091Z,51.23
2019-05-21T20:48:07.183Z,51.50
2019-05-21T20:50:37.604Z,46.63
2019-05-21T20:53:08.955Z,55.97
2019-05-21T20:55:39.062Z,54.77
2019-05-21T20:58:28.933Z,51.80
2019-05-21T21:01:02.206Z,56.13
2019-05-21T21:03:35.217Z,48.53
2019-05-21T21:06:05.370Z,51.03
2019-05-21T21:08:36.636Z,46.33
2019-05-21T21:11:09.047Z,47.10
2019-05-21T21:13:40.834Z,55.03
2019-05-21T21:16:12.374Z,54.13
2019-05-21T21:18:42.708Z,53.63
2019-05-21T21:21:13.433Z,52.57
2019-05-21T21:23:44.834Z,51.47
2019-05-21T21:26:27.011Z,53.83
2019-05-21T21:28:57.393Z,62.17
2019-05-21T21:31:27.507Z,54.93
2019-05-21T21:33:57.809Z,54.50
2019-05-21T21:36:28.357Z,56.33
2019-05-21T21:38:59.890Z,59.93
2019-05-21T21:41:30.439Z,53.77
2019-05-21T21:44:00.602Z,65.20
2019-05-21T21:46:30.964Z,60.83
2019-05-21T21:49:01.337Z,67.30
2019-05-21T21:51:31.662Z,60.40
2019-05-21T21:54:02.554Z,69.23
2019-05-21T21:56:32.654Z,74.47
2019-05-21T21:59:02.659Z,73.10
2019-05-21T22:01:54.421Z,66.00
2019-05-21T22:04:37.404Z,67.07
2019-05-21T22:07:08.350Z,71.43
2019-05-21T22:09:39.905Z,69.30
2019-05-21T22:12:12.563Z,73.33
2019-05-21T22:14:51.743Z,67.97
2019-05-21T22:17:17.415Z,73.80
2019-05-21T22:19:48.000Z,72.13
2019-05-21T22:22:18.802Z,72.60
2019-05-21T22:24:49.599Z,65.00
2019-05-21T22:27:19.958Z,72.10
2019-05-21T22:29:50.398Z,64.57
2019-05-21T22:32:20.543Z,63.03
2019-05-21T22:34:50.542Z,65.83
2019-05-21T22:37:23.603Z,74.10
2019-05-21T22:39:53.882Z,63.67
2019-05-21T22:42:24.472Z,71.60
2019-05-21T22:45:07.420Z,73.33
2019-05-21T22:47:27.370Z,70.33
2019-05-21T22:49:57.594Z,59.23
2019-05-21T22:52:27.506Z,60.37
2019-05-21T22:54:57.375Z,58.77
2019-05-21T22:57:27.397Z,55.10
2019-05-21T22:59:57.317Z,58.07
2019-05-21T23:02:31.543Z,57.33
2019-05-21T23:05:01.449Z,56.27
2019-05-21T23:07:31.361Z,52.37
2019-05-21T23:10:01.370Z,49.47
2019-05-21T23:12:31.482Z,48.53
2019-05-21T23:15:01.517Z,46.57
2019-05-21T23:17:33.745Z,43.77
2019-05-21T23:20:27.821Z,48.80
2019-05-21T23:22:57.842Z,44.10
2019-05-21T23:25:28.409Z,47.33
2019-05-21T23:27:59.628Z,50.03
2019-05-21T23:30:29.969Z,45.80
2019-05-21T23:32:59.888Z,44.07
2019-05-21T23:35:30.247Z,49.57
2019-05-21T23:38:02.417Z,44.90
2019-05-21T23:40:32.528Z,53.13
2019-05-21T23:43:05.960Z,48.03
2019-05-21T23:45:35.914Z,46.37
2019-05-21T23:48:08.415Z,50.23
2019-05-21T23:50:38.454Z,46.73
2019-05-21T23:53:09.440Z,54.20
2019-05-21T23:55:40.375Z,42.43
2019-05-21T23:58:10.349Z,52.20
